sensor_id;sensor_type;location;lat;lon;timestamp;temperature;humidity
33007;DHT22;19361;51.598;7.650;2023-05-10T00:02:59;18.00;70.40
33007;DHT22;19361;51.598;7.650;2023-05-10T00:08:20;17.90;70.30
33007;DHT22;19361;51.598;7.650;2023-05-10T00:13:42;17.90;70.50
33007;DHT22;19361;51.598;7.650;2023-05-10T00:19:03;17.80;70.60
33007;DHT22;19361;51.598;7.650;2023-05-10T00:24:24;17.80;70.70
33007;DHT22;19361;51.598;7.650;2023-05-10T00:29:45;17.80;70.70
33007;DHT22;19361;51.598;7.650;2023-05-10T00:35:07;17.80;70.70
33007;DHT22;19361;51.598;7.650;2023-05-10T00:40:28;17.80;70.90
33007;DHT22;19361;51.598;7.650;2023-05-10T00:45:51;17.70;70.90
33007;DHT22;19361;51.598;7.650;2023-05-10T00:51:13;17.80;71.20
33007;DHT22;19361;51.598;7.650;2023-05-10T00:56:34;17.70;71.50
33007;DHT22;19361;51.598;7.650;2023-05-10T01:01:56;17.60;71.50
33007;DHT22;19361;51.598;7.650;2023-05-10T01:07:18;17.60;71.20
33007;DHT22;19361;51.598;7.650;2023-05-10T01:12:40;17.50;71.40
33007;DHT22;19361;51.598;7.650;2023-05-10T01:18:02;17.50;71.50
33007;DHT22;19361;51.598;7.650;2023-05-10T01:23:57;17.50;71.70
33007;DHT22;19361;51.598;7.650;2023-05-10T01:35:43;17.50;72.10
33007;DHT22;19361;51.598;7.650;2023-05-10T01:41:55;17.50;72.40
33007;DHT22;19361;51.598;7.650;2023-05-10T01:47:34;17.50;71.90
33007;DHT22;19361;51.598;7.650;2023-05-10T01:53:00;17.40;72.00
33007;DHT22;19361;51.598;7.650;2023-05-10T01:58:28;17.40;71.70
33007;DHT22;19361;51.598;7.650;2023-05-10T02:03:51;17.40;72.00
33007;DHT22;19361;51.598;7.650;2023-05-10T02:09:14;17.30;71.90
33007;DHT22;19361;51.598;7.650;2023-05-10T02:14:37;17.30;72.00
33007;DHT22;19361;51.598;7.650;2023-05-10T02:19:59;17.30;72.00
33007;DHT22;19361;51.598;7.650;2023-05-10T02:25:23;17.30;72.00
33007;DHT22;19361;51.598;7.650;2023-05-10T02:30:47;17.30;72.10
33007;DHT22;19361;51.598;7.650;2023-05-10T02:36:09;17.30;72.20
33007;DHT22;19361;51.598;7.650;2023-05-10T02:41:32;17.30;72.10
33007;DHT22;19361;51.598;7.650;2023-05-10T02:46:53;17.20;71.80
33007;DHT22;19361;51.598;7.650;2023-05-10T02:52:21;17.20;71.80
33007;DHT22;19361;51.598;7.650;2023-05-10T02:57:59;17.10;71.70
33007;DHT22;19361;51.598;7.650;2023-05-10T03:03:21;17.10;72.00
33007;DHT22;19361;51.598;7.650;2023-05-10T03:08:43;17.10;71.70
33007;DHT22;19361;51.598;7.650;2023-05-10T03:14:21;17.10;71.60
33007;DHT22;19361;51.598;7.650;2023-05-10T03:20:08;17.10;71.70
33007;DHT22;19361;51.598;7.650;2023-05-10T03:25:32;17.00;71.50
33007;DHT22;19361;51.598;7.650;2023-05-10T03:30:55;17.00;71.40
33007;DHT22;19361;51.598;7.650;2023-05-10T03:36:17;17.00;71.40
33007;DHT22;19361;51.598;7.650;2023-05-10T03:41:39;16.90;71.10
33007;DHT22;19361;51.598;7.650;2023-05-10T03:47:00;16.90;71.00
33007;DHT22;19361;51.598;7.650;2023-05-10T03:52:21;16.80;70.90
33007;DHT22;19361;51.598;7.650;2023-05-10T03:57:42;16.80;71.00
33007;DHT22;19361;51.598;7.650;2023-05-10T04:03:03;16.70;71.10
33007;DHT22;19361;51.598;7.650;2023-05-10T04:08:24;16.70;71.20
33007;DHT22;19361;51.598;7.650;2023-05-10T04:13:45;16.70;71.40
33007;DHT22;19361;51.598;7.650;2023-05-10T04:19:06;16.70;72.00
33007;DHT22;19361;51.598;7.650;2023-05-10T04:24:28;16.70;71.60
33007;DHT22;19361;51.598;7.650;2023-05-10T04:29:49;16.70;71.70
33007;DHT22;19361;51.598;7.650;2023-05-10T04:35:10;16.70;71.80
33007;DHT22;19361;51.598;7.650;2023-05-10T04:40:31;16.70;71.90
33007;DHT22;19361;51.598;7.650;2023-05-10T04:50:56;16.80;72.00
33007;DHT22;19361;51.598;7.650;2023-05-10T04:56:17;16.90;72.00
33007;DHT22;19361;51.598;7.650;2023-05-10T05:01:39;16.90;72.00
33007;DHT22;19361;51.598;7.650;2023-05-10T05:07:00;16.90;71.90
33007;DHT22;19361;51.598;7.650;2023-05-10T05:12:21;17.00;72.00
33007;DHT22;19361;51.598;7.650;2023-05-10T05:17:43;17.00;72.00
33007;DHT22;19361;51.598;7.650;2023-05-10T05:23:04;16.90;71.90
33007;DHT22;19361;51.598;7.650;2023-05-10T05:28:25;17.00;71.90
33007;DHT22;19361;51.598;7.650;2023-05-10T05:33:46;17.00;72.00
33007;DHT22;19361;51.598;7.650;2023-05-10T05:39:07;17.00;72.00
33007;DHT22;19361;51.598;7.650;2023-05-10T05:44:28;16.90;72.20
33007;DHT22;19361;51.598;7.650;2023-05-10T05:49:49;17.00;72.30
33007;DHT22;19361;51.598;7.650;2023-05-10T05:55:10;17.00;73.00
33007;DHT22;19361;51.598;7.650;2023-05-10T06:00:32;17.00;72.60
33007;DHT22;19361;51.598;7.650;2023-05-10T06:05:53;17.00;72.70
33007;DHT22;19361;51.598;7.650;2023-05-10T06:11:14;17.10;72.80
33007;DHT22;19361;51.598;7.650;2023-05-10T06:16:36;17.20;72.70
33007;DHT22;19361;51.598;7.650;2023-05-10T06:21:57;17.20;72.80
33007;DHT22;19361;51.598;7.650;2023-05-10T06:27:18;17.30;72.80
33007;DHT22;19361;51.598;7.650;2023-05-10T06:32:39;17.30;72.80
33007;DHT22;19361;51.598;7.650;2023-05-10T06:38:00;17.30;72.90
33007;DHT22;19361;51.598;7.650;2023-05-10T06:43:21;17.40;72.90
33007;DHT22;19361;51.598;7.650;2023-05-10T06:48:42;17.40;73.00
33007;DHT22;19361;51.598;7.650;2023-05-10T06:54:03;17.50;73.30
33007;DHT22;19361;51.598;7.650;2023-05-10T06:59:24;17.60;73.50
33007;DHT22;19361;51.598;7.650;2023-05-10T07:04:47;17.70;74.20
33007;DHT22;19361;51.598;7.650;2023-05-10T07:10:08;17.90;73.80
33007;DHT22;19361;51.598;7.650;2023-05-10T07:15:30;18.00;73.20
33007;DHT22;19361;51.598;7.650;2023-05-10T07:20:51;18.10;73.30
33007;DHT22;19361;51.598;7.650;2023-05-10T07:26:12;18.30;73.70
33007;DHT22;19361;51.598;7.650;2023-05-10T07:31:33;18.50;73.80
33007;DHT22;19361;51.598;7.650;2023-05-10T07:36:54;18.70;72.10
33007;DHT22;19361;51.598;7.650;2023-05-10T07:42:16;18.70;71.90
33007;DHT22;19361;51.598;7.650;2023-05-10T07:47:37;18.70;71.20
33007;DHT22;19361;51.598;7.650;2023-05-10T07:52:58;18.70;72.10
33007;DHT22;19361;51.598;7.650;2023-05-10T07:58:19;18.90;71.50
33007;DHT22;19361;51.598;7.650;2023-05-10T08:03:40;19.00;71.30
33007;DHT22;19361;51.598;7.650;2023-05-10T08:09:01;19.10;70.80
33007;DHT22;19361;51.598;7.650;2023-05-10T08:14:22;19.10;70.90
33007;DHT22;19361;51.598;7.650;2023-05-10T08:19:44;19.20;70.20
33007;DHT22;19361;51.598;7.650;2023-05-10T08:25:05;19.20;69.80
33007;DHT22;19361;51.598;7.650;2023-05-10T08:30:26;19.30;69.00
33007;DHT22;19361;51.598;7.650;2023-05-10T08:35:48;19.20;68.90
33007;DHT22;19361;51.598;7.650;2023-05-10T08:41:10;19.20;69.80
33007;DHT22;19361;51.598;7.650;2023-05-10T08:46:33;19.30;70.10
33007;DHT22;19361;51.598;7.650;2023-05-10T08:52:03;19.50;69.50
33007;DHT22;19361;51.598;7.650;2023-05-10T08:57:25;19.70;67.60
33007;DHT22;19361;51.598;7.650;2023-05-10T09:02:46;20.00;67.70
33007;DHT22;19361;51.598;7.650;2023-05-10T09:08:09;20.10;68.00
33007;DHT22;19361;51.598;7.650;2023-05-10T09:13:32;20.40;67.10
33007;DHT22;19361;51.598;7.650;2023-05-10T09:18:53;20.70;65.60
33007;DHT22;19361;51.598;7.650;2023-05-10T09:24:15;20.80;64.60
33007;DHT22;19361;51.598;7.650;2023-05-10T09:29:42;20.90;63.40
33007;DHT22;19361;51.598;7.650;2023-05-10T09:35:15;20.80;62.80
33007;DHT22;19361;51.598;7.650;2023-05-10T09:40:37;20.70;63.20
33007;DHT22;19361;51.598;7.650;2023-05-10T09:45:58;20.60;64.00
33007;DHT22;19361;51.598;7.650;2023-05-10T09:51:23;20.70;65.00
33007;DHT22;19361;51.598;7.650;2023-05-10T09:56:45;21.00;64.00
33007;DHT22;19361;51.598;7.650;2023-05-10T10:02:06;21.10;62.90
33007;DHT22;19361;51.598;7.650;2023-05-10T10:07:27;21.30;63.50
33007;DHT22;19361;51.598;7.650;2023-05-10T10:12:48;21.50;63.40
33007;DHT22;19361;51.598;7.650;2023-05-10T10:18:13;21.70;61.80
33007;DHT22;19361;51.598;7.650;2023-05-10T10:23:35;21.90;60.80
33007;DHT22;19361;51.598;7.650;2023-05-10T10:35:23;22.30;60.00
33007;DHT22;19361;51.598;7.650;2023-05-10T10:40:44;22.30;59.60
33007;DHT22;19361;51.598;7.650;2023-05-10T10:46:13;22.30;60.30
33007;DHT22;19361;51.598;7.650;2023-05-10T10:51:39;22.20;59.60
33007;DHT22;19361;51.598;7.650;2023-05-10T10:57:13;22.20;59.60
33007;DHT22;19361;51.598;7.650;2023-05-10T11:02:44;22.30;58.80
33007;DHT22;19361;51.598;7.650;2023-05-10T11:08:30;22.50;59.10
33007;DHT22;19361;51.598;7.650;2023-05-10T11:13:52;22.50;57.60
33007;DHT22;19361;51.598;7.650;2023-05-10T11:19:15;22.70;58.60
33007;DHT22;19361;51.598;7.650;2023-05-10T11:24:37;22.80;56.40
33007;DHT22;19361;51.598;7.650;2023-05-10T11:29:58;22.90;56.20
33007;DHT22;19361;51.598;7.650;2023-05-10T11:35:19;22.90;56.20
33007;DHT22;19361;51.598;7.650;2023-05-10T11:40:40;22.90;55.80
33007;DHT22;19361;51.598;7.650;2023-05-10T11:46:01;22.80;56.40
33007;DHT22;19361;51.598;7.650;2023-05-10T11:51:24;22.60;56.70
33007;DHT22;19361;51.598;7.650;2023-05-10T11:56:45;22.40;57.40
33007;DHT22;19361;51.598;7.650;2023-05-10T12:02:07;22.40;56.90
33007;DHT22;19361;51.598;7.650;2023-05-10T12:07:28;22.50;56.60
33007;DHT22;19361;51.598;7.650;2023-05-10T12:12:52;22.50;57.10
33007;DHT22;19361;51.598;7.650;2023-05-10T12:18:14;22.60;55.30
33007;DHT22;19361;51.598;7.650;2023-05-10T12:23:35;22.50;55.40
33007;DHT22;19361;51.598;7.650;2023-05-10T12:29:16;22.50;55.20
33007;DHT22;19361;51.598;7.650;2023-05-10T12:34:38;22.40;56.00
33007;DHT22;19361;51.598;7.650;2023-05-10T12:40:00;22.30;56.30
33007;DHT22;19361;51.598;7.650;2023-05-10T12:45:21;22.30;56.00
33007;DHT22;19361;51.598;7.650;2023-05-10T12:50:42;22.40;55.90
33007;DHT22;19361;51.598;7.650;2023-05-10T12:56:04;22.50;55.70
33007;DHT22;19361;51.598;7.650;2023-05-10T13:01:25;22.60;55.50
33007;DHT22;19361;51.598;7.650;2023-05-10T13:06:46;22.70;54.80
33007;DHT22;19361;51.598;7.650;2023-05-10T13:12:07;22.80;54.10
33007;DHT22;19361;51.598;7.650;2023-05-10T13:17:29;22.80;53.90
33007;DHT22;19361;51.598;7.650;2023-05-10T13:22:50;22.90;54.30
33007;DHT22;19361;51.598;7.650;2023-05-10T13:28:11;22.90;54.50
33007;DHT22;19361;51.598;7.650;2023-05-10T13:33:32;22.90;54.30
33007;DHT22;19361;51.598;7.650;2023-05-10T13:38:53;22.90;53.60
33007;DHT22;19361;51.598;7.650;2023-05-10T13:44:15;22.90;53.50
33007;DHT22;19361;51.598;7.650;2023-05-10T13:49:36;22.90;53.40
33007;DHT22;19361;51.598;7.650;2023-05-10T13:54:57;22.90;53.90
33007;DHT22;19361;51.598;7.650;2023-05-10T14:00:18;23.00;54.10
33007;DHT22;19361;51.598;7.650;2023-05-10T14:05:39;23.10;53.30
33007;DHT22;19361;51.598;7.650;2023-05-10T14:11:01;23.20;53.30
33007;DHT22;19361;51.598;7.650;2023-05-10T14:16:22;23.20;53.00
33007;DHT22;19361;51.598;7.650;2023-05-10T14:21:43;23.10;53.00
33007;DHT22;19361;51.598;7.650;2023-05-10T14:27:04;23.00;53.00
33007;DHT22;19361;51.598;7.650;2023-05-10T14:32:26;22.90;53.00
33007;DHT22;19361;51.598;7.650;2023-05-10T14:37:48;22.90;53.30
33007;DHT22;19361;51.598;7.650;2023-05-10T14:43:09;22.90;52.40
33007;DHT22;19361;51.598;7.650;2023-05-10T14:48:30;22.90;52.30
33007;DHT22;19361;51.598;7.650;2023-05-10T14:53:52;22.80;52.00
33007;DHT22;19361;51.598;7.650;2023-05-10T14:59:13;22.80;52.40
33007;DHT22;19361;51.598;7.650;2023-05-10T15:04:34;22.80;52.50
33007;DHT22;19361;51.598;7.650;2023-05-10T15:09:55;22.80;52.40
33007;DHT22;19361;51.598;7.650;2023-05-10T15:15:16;22.80;52.30
33007;DHT22;19361;51.598;7.650;2023-05-10T15:20:37;22.80;51.60
33007;DHT22;19361;51.598;7.650;2023-05-10T15:25:58;22.90;51.30
33007;DHT22;19361;51.598;7.650;2023-05-10T15:31:19;23.00;51.50
33007;DHT22;19361;51.598;7.650;2023-05-10T15:36:40;23.00;50.80
33007;DHT22;19361;51.598;7.650;2023-05-10T15:42:01;23.00;51.10
33007;DHT22;19361;51.598;7.650;2023-05-10T15:47:23;23.00;50.40
33007;DHT22;19361;51.598;7.650;2023-05-10T15:52:45;23.00;50.40
33007;DHT22;19361;51.598;7.650;2023-05-10T15:58:07;23.00;50.30
33007;DHT22;19361;51.598;7.650;2023-05-10T16:03:28;23.10;50.70
33007;DHT22;19361;51.598;7.650;2023-05-10T16:08:50;23.10;50.80
33007;DHT22;19361;51.598;7.650;2023-05-10T16:14:11;23.10;50.20
33007;DHT22;19361;51.598;7.650;2023-05-10T16:19:32;23.10;50.40
33007;DHT22;19361;51.598;7.650;2023-05-10T16:24:53;23.00;50.10
33007;DHT22;19361;51.598;7.650;2023-05-10T16:30:15;23.00;50.20
33007;DHT22;19361;51.598;7.650;2023-05-10T16:35:36;22.80;50.60
33007;DHT22;19361;51.598;7.650;2023-05-10T16:41:01;22.70;50.30
33007;DHT22;19361;51.598;7.650;2023-05-10T16:46:22;22.60;50.50
33007;DHT22;19361;51.598;7.650;2023-05-10T16:51:43;22.50;50.80
33007;DHT22;19361;51.598;7.650;2023-05-10T16:57:05;22.30;51.40
33007;DHT22;19361;51.598;7.650;2023-05-10T17:02:27;22.10;52.00
33007;DHT22;19361;51.598;7.650;2023-05-10T17:07:48;22.00;52.30
33007;DHT22;19361;51.598;7.650;2023-05-10T17:13:09;21.90;52.60
33007;DHT22;19361;51.598;7.650;2023-05-10T17:18:30;21.80;54.00
33007;DHT22;19361;51.598;7.650;2023-05-10T17:23:51;21.60;54.70
33007;DHT22;19361;51.598;7.650;2023-05-10T17:29:12;21.40;56.10
33007;DHT22;19361;51.598;7.650;2023-05-10T17:34:35;21.20;56.60
33007;DHT22;19361;51.598;7.650;2023-05-10T17:39:56;21.10;56.80
33007;DHT22;19361;51.598;7.650;2023-05-10T17:45:17;20.90;57.60
33007;DHT22;19361;51.598;7.650;2023-05-10T17:50:41;20.80;58.00
33007;DHT22;19361;51.598;7.650;2023-05-10T17:56:03;20.60;58.50
33007;DHT22;19361;51.598;7.650;2023-05-10T18:01:24;20.60;58.50
33007;DHT22;19361;51.598;7.650;2023-05-10T18:06:45;20.40;59.00
33007;DHT22;19361;51.598;7.650;2023-05-10T18:12:06;20.30;59.80
33007;DHT22;19361;51.598;7.650;2023-05-10T18:17:27;20.30;60.10
33007;DHT22;19361;51.598;7.650;2023-05-10T18:22:49;20.20;60.20
33007;DHT22;19361;51.598;7.650;2023-05-10T18:28:10;20.20;60.10
33007;DHT22;19361;51.598;7.650;2023-05-10T18:33:31;20.10;59.80
33007;DHT22;19361;51.598;7.650;2023-05-10T18:38:52;20.00;59.90
33007;DHT22;19361;51.598;7.650;2023-05-10T18:44:13;19.90;60.70
33007;DHT22;19361;51.598;7.650;2023-05-10T18:49:35;19.80;61.30
33007;DHT22;19361;51.598;7.650;2023-05-10T18:54:56;19.70;61.30
33007;DHT22;19361;51.598;7.650;2023-05-10T19:00:17;19.70;61.60
33007;DHT22;19361;51.598;7.650;2023-05-10T19:05:39;19.60;61.80
33007;DHT22;19361;51.598;7.650;2023-05-10T19:11:00;19.40;61.70
33007;DHT22;19361;51.598;7.650;2023-05-10T19:16:21;19.30;61.80
33007;DHT22;19361;51.598;7.650;2023-05-10T19:21:43;19.20;62.10
33007;DHT22;19361;51.598;7.650;2023-05-10T19:27:04;19.00;62.50
33007;DHT22;19361;51.598;7.650;2023-05-10T19:32:25;19.00;62.90
33007;DHT22;19361;51.598;7.650;2023-05-10T19:37:46;18.90;63.00
33007;DHT22;19361;51.598;7.650;2023-05-10T19:43:07;18.80;63.30
33007;DHT22;19361;51.598;7.650;2023-05-10T19:48:29;18.70;63.70
33007;DHT22;19361;51.598;7.650;2023-05-10T19:53:50;18.70;64.00
33007;DHT22;19361;51.598;7.650;2023-05-10T19:59:12;18.60;64.20
33007;DHT22;19361;51.598;7.650;2023-05-10T20:04:33;18.60;64.30
33007;DHT22;19361;51.598;7.650;2023-05-10T20:09:54;18.60;64.60
33007;DHT22;19361;51.598;7.650;2023-05-10T20:15:16;18.50;64.60
33007;DHT22;19361;51.598;7.650;2023-05-10T20:20:39;18.50;65.10
33007;DHT22;19361;51.598;7.650;2023-05-10T20:26:00;18.50;65.10
33007;DHT22;19361;51.598;7.650;2023-05-10T20:31:21;18.50;65.30
33007;DHT22;19361;51.598;7.650;2023-05-10T20:36:42;18.40;65.30
33007;DHT22;19361;51.598;7.650;2023-05-10T20:42:03;18.40;65.40
33007;DHT22;19361;51.598;7.650;2023-05-10T20:47:25;18.30;65.40
33007;DHT22;19361;51.598;7.650;2023-05-10T20:52:46;18.30;65.50
33007;DHT22;19361;51.598;7.650;2023-05-10T20:58:10;18.20;65.60
33007;DHT22;19361;51.598;7.650;2023-05-10T21:03:31;18.20;65.90
33007;DHT22;19361;51.598;7.650;2023-05-10T21:08:52;18.10;66.00
33007;DHT22;19361;51.598;7.650;2023-05-10T21:14:13;18.10;66.20
33007;DHT22;19361;51.598;7.650;2023-05-10T21:19:34;18.10;66.40
33007;DHT22;19361;51.598;7.650;2023-05-10T21:24:55;18.10;66.60
33007;DHT22;19361;51.598;7.650;2023-05-10T21:30:18;18.10;66.60
33007;DHT22;19361;51.598;7.650;2023-05-10T21:35:39;18.10;67.00
33007;DHT22;19361;51.598;7.650;2023-05-10T21:41:06;18.10;66.70
33007;DHT22;19361;51.598;7.650;2023-05-10T21:46:27;18.10;67.00
33007;DHT22;19361;51.598;7.650;2023-05-10T21:51:48;18.10;66.70
33007;DHT22;19361;51.598;7.650;2023-05-10T21:57:09;18.10;66.70
33007;DHT22;19361;51.598;7.650;2023-05-10T22:02:30;18.10;67.00
33007;DHT22;19361;51.598;7.650;2023-05-10T22:07:51;18.10;67.10
33007;DHT22;19361;51.598;7.650;2023-05-10T22:13:12;18.10;67.10
33007;DHT22;19361;51.598;7.650;2023-05-10T22:18:33;18.10;67.20
33007;DHT22;19361;51.598;7.650;2023-05-10T22:23:55;18.10;67.20
33007;DHT22;19361;51.598;7.650;2023-05-10T22:29:16;18.00;67.30
33007;DHT22;19361;51.598;7.650;2023-05-10T22:34:37;18.00;68.00
33007;DHT22;19361;51.598;7.650;2023-05-10T22:39:58;18.00;67.50
33007;DHT22;19361;51.598;7.650;2023-05-10T22:45:19;18.00;67.70
33007;DHT22;19361;51.598;7.650;2023-05-10T22:50:40;18.00;67.80
33007;DHT22;19361;51.598;7.650;2023-05-10T22:56:01;18.00;68.00
33007;DHT22;19361;51.598;7.650;2023-05-10T23:01:23;18.00;68.00
33007;DHT22;19361;51.598;7.650;2023-05-10T23:06:44;18.00;68.10
33007;DHT22;19361;51.598;7.650;2023-05-10T23:12:06;18.00;68.00
33007;DHT22;19361;51.598;7.650;2023-05-10T23:17:27;17.90;68.10
33007;DHT22;19361;51.598;7.650;2023-05-10T23:22:48;17.90;68.20
33007;DHT22;19361;51.598;7.650;2023-05-10T23:28:09;17.90;68.40
33007;DHT22;19361;51.598;7.650;2023-05-10T23:33:30;17.90;68.60
33007;DHT22;19361;51.598;7.650;2023-05-10T23:38:51;17.80;68.50
33007;DHT22;19361;51.598;7.650;2023-05-10T23:44:12;17.80;68.50
33007;DHT22;19361;51.598;7.650;2023-05-10T23:49:33;17.80;68.50
33007;DHT22;19361;51.598;7.650;2023-05-10T23:54:54;17.70;68.60
